Milo, ME

7:47 PM EDT on July 30, 2014 (GMT -0400)
KMEGARLA2 Elev 410 ft | 45.02 °N, 69.13 °W | Change Station

Current weather conditions updated 5 seconds ago

Overcast
Overcast
65.8 °F
Feels Like 65.8 °F
N
0.0
Wind Variable Wind from SW
Gusts 7.0 mph

Tomorrow is forecast to be Warmer than today.

Today
High -- | Low -- °F
--% Chance of Precip.
Yesterday
High -- | Low -- °F
Precip. -- in
5:18 AM 8:05 PM
Waxing Crescent, 14% visible
Pressure 30.01 in
Visibility 10.0 miles
Clouds Mostly Cloudy 3300 ft
Overcast 10000 ft
Dew Point 62 °F
Humidity 87%
Rainfall 0.00 in
Snow Depth Not available.
UV 0 out of 12
Pollen 4.80 out of 12
Air Quality Not available.
Flu Activity Not available.
METAR KMLT 302253Z AUTO VRB05KT 10SM BKN033 OVC100 22/16 A2999 RMK AO2 SLP161 T02220161

More Conditions Fewer Conditions

Pressure 30.01 in
Visibility 10.0 miles
Clouds Mostly Cloudy 3300 ft
Overcast 10000 ft
Dew Point 62 °F
Humidity 87%
Rainfall 0.00 in
Snow Depth Not available.
UV 0 out of 12
Pollen 4.80 out of 12
Air Quality Not available.
Flu Activity Not available.
METAR KMLT 302253Z AUTO VRB05KT 10SM BKN033 OVC100 22/16 A2999 RMK AO2 SLP161 T02220161

More Conditions Fewer Conditions

10-Day Weather Forecast

Almanac

Astronomy

Jul. 30, 2014 Rise Set
Actual Time 5:18 AM EDT 8:05 PM EDT
Civil Twilight 4:44 AM EDT 8:39 PM EDT
Nautical Twilight 4:00 AM EDT 9:23 PM EDT
Astronomical Twilight 3:09 AM EDT 10:13 PM EDT
Moon 8:59 AM EDT 9:33 PM EDT
Length of Visible Light 15h 55m
Length of Day
14h 47m
Tomorrow will be 2m 23s shorter.
Waxing Crescent, 14% of the Moon is Illuminated
Today
Waxing Crescent
Aug 3
First Quarter
Aug 10
Full
Aug 17
Last Quarter
Aug 25
New

Today's Extremes

State Highs State Lows

Community

WunderPhotos

Upload Photos

1,739,257 photos uploaded!

Nearby

Air Quality

  Air Quality AQ Index Pollutant
Wednesday Good
OZONE
Wednesday Good
PM2.5
Thursday Good
OZONE
Thursday Good
PM2.5
Friday Good
OZONE
Friday Good
PM2.5
Saturday Good
OZONE
Saturday Good
PM2.5

Snow Depth

Station Depth Elevation
No new snow has been reported.

Earthquake Activity

City Distance Mag. Time & Date
No recent earthquake activity has been reported nearby.
Minimum magnitude displayed is 2.5.

Coastal Water Temperatures

Place Temperature
No Stations Reporting

Nearby Weather Stations

Station Location Temp. Dew Point Humidity Wind Precip. Elev Updated Type
HADS PISCATAQUIS RIVER NEAR DOVER-FOX ME, Sangerville, ME 66 °F - - North  at  - 0.00 in / hr 357 ft 6:30 PM EDT MADIS
Garland, ME 65.8 °F 62 °F 87% SW  at  0.0 mph 0.00 in / hr 410 ft 7:47 PM EDT Rapid Fire

Show More Stations Show Fewer Stations